Time;durP1;ratioP1;P1;durP2;ratioP2;P2;SDS_P1;SDS_P2;PMS_P1;PMS_P2;Temp;Humidity;BMP_temperature;BMP_pressure;BME280_temperature;BME280_humidity;BME280_pressure;Samples;Min_cycle;Max_cycle;Signal;HPM_P1;HPM_P2
2021/06/18 00:01:26;;;;;;;6.45;5.28;;;;;;;20.25;52.16;100755.35;128399;1098;24220;-83
2021/06/18 00:03:59;;;;;;;13.28;6.38;;;;;;;20.22;52.46;100754.73;128457;1097;22478;-81
2021/06/18 00:06:34;;;;;;;9.23;5.93;;;;;;;20.21;52.18;100755.80;128590;1098;24211;-84
2021/06/18 00:09:05;;;;;;;13.35;6.68;;;;;;;20.21;52.41;100753.11;128668;1095;25123;-86
2021/06/18 00:11:37;;;;;;;10.83;6.33;;;;;;;20.18;52.23;100750.87;128562;1098;22412;-86
2021/06/18 00:14:08;;;;;;;9.40;6.48;;;;;;;20.14;52.56;100752.36;128442;1098;23316;-84
2021/06/18 00:16:39;;;;;;;;;;;;;;;20.05;52.35;100758.22;128475;1098;24988;-85
2021/06/18 00:19:10;;;;;;;6.93;5.87;;;;;;;19.96;52.66;100753.16;128395;1098;23811;-86
2021/06/18 00:21:42;;;;;;;9.08;5.85;;;;;;;19.96;52.76;100752.34;128061;1101;22401;-86
2021/06/18 00:24:12;;;;;;;8.03;6.23;;;;;;;19.93;52.98;100750.09;128072;1101;22417;-84
2021/06/18 00:26:45;;;;;;;14.73;6.90;;;;;;;19.93;52.95;100748.23;128122;1101;22400;-84
2021/06/18 00:29:16;;;;;;;6.88;5.93;;;;;;;19.92;53.19;100749.25;127944;1101;22394;-84
2021/06/18 00:31:50;;;;;;;8.10;6.30;;;;;;;19.92;52.97;100762.65;127866;1101;22460;-84
2021/06/18 00:34:20;;;;;;;9.78;6.15;;;;;;;19.92;53.63;100746.56;127905;1101;23120;-83
2021/06/18 00:36:51;;;;;;;7.58;6.73;;;;;;;19.88;53.01;100757.95;127376;1105;22510;-83
2021/06/18 00:39:22;;;;;;;9.25;6.45;;;;;;;19.87;53.43;100753.64;127696;1101;22957;-83
2021/06/18 00:41:53;;;;;;;14.40;6.60;;;;;;;19.85;53.49;100750.34;128031;1101;24224;-83
2021/06/18 00:44:27;;;;;;;8.18;6.10;;;;;;;19.84;53.66;100744.17;128012;1101;23422;-82
2021/06/18 00:46:58;;;;;;;9.75;6.45;;;;;;;19.81;53.67;100749.16;128215;1098;22389;-84
2021/06/18 00:49:33;;;;;;;11.30;6.70;;;;;;;19.75;53.52;100750.84;128182;1101;22103;-84
2021/06/18 00:52:07;;;;;;;10.95;6.60;;;;;;;19.72;53.98;100745.91;128315;1101;24528;-84
2021/06/18 00:54:39;;;;;;;;;;;;;;;19.64;53.80;100749.69;128150;1101;22378;-83
2021/06/18 00:57:10;;;;;;;7.73;6.25;;;;;;;19.59;54.10;100745.98;128157;1101;21273;-84
2021/06/18 00:59:41;;;;;;;10.20;6.15;;;;;;;19.58;54.32;100749.70;127956;1101;23170;-84
2021/06/18 01:02:13;;;;;;;7.70;6.95;;;;;;;19.60;54.44;100753.00;128075;1101;22543;-85
2021/06/18 01:04:48;;;;;;;9.25;6.73;;;;;;;19.60;54.24;100753.00;128135;1101;22625;-84
2021/06/18 01:07:35;;;;;;;9.37;6.60;;;;;;;19.56;54.39;100749.94;128116;1100;22432;-85
2021/06/18 01:11:00;;;;;;;8.13;7.33;;;;;;;19.58;54.59;100752.39;127968;1103;22410;-85
2021/06/18 01:13:38;;;;;;;11.40;9.28;;;;;;;19.57;54.88;100753.44;127375;1104;22434;-86
2021/06/18 01:16:13;;;;;;;10.50;7.88;;;;;;;19.59;54.58;100754.02;127936;1105;22433;-83
2021/06/18 01:19:06;;;;;;;13.58;7.28;;;;;;;19.60;55.03;100753.82;127790;1101;22420;-83
2021/06/18 01:21:42;;;;;;;8.75;7.58;;;;;;;19.60;55.08;100745.78;127907;1101;22444;-83
2021/06/18 01:25:01;;;;;;;8.90;7.33;;;;;;;19.60;55.37;100748.46;127899;1102;22424;-84
2021/06/18 01:27:42;;;;;;;8.05;6.60;;;;;;;19.56;55.19;100757.98;127383;1105;22422;-85
2021/06/18 01:30:17;;;;;;;9.10;7.18;;;;;;;19.51;54.88;100753.25;127453;1105;24231;-85
2021/06/18 01:33:04;;;;;;;8.90;7.50;;;;;;;19.46;55.12;100747.73;127351;1105;22429;-84
2021/06/18 01:35:41;;;;;;;8.40;6.30;;;;;;;19.42;55.02;100751.05;127414;1105;22424;-85
2021/06/18 01:38:18;;;;;;;8.65;6.43;;;;;;;19.37;55.13;100746.35;127420;1105;22404;-85
2021/06/18 01:41:05;;;;;;;7.25;6.55;;;;;;;19.35;55.69;100750.27;127581;1104;22418;-85
2021/06/18 01:43:40;;;;;;;9.95;7.38;;;;;;;19.33;55.52;100747.01;127392;1108;22451;-84
2021/06/18 01:46:14;;;;;;;10.40;8.63;;;;;;;19.31;55.76;100746.39;127486;1105;22476;-83
2021/06/18 01:48:55;;;;;;;9.30;7.60;;;;;;;19.27;55.78;100737.97;127748;1105;22418;-85
2021/06/18 01:51:29;;;;;;;11.17;7.83;;;;;;;19.25;56.25;100735.48;127730;1105;22430;-83
2021/06/18 01:54:27;;;;;;;9.58;7.25;;;;;;;19.26;56.47;100730.98;127709;1105;22448;-83
2021/06/18 01:57:03;;;;;;;7.45;6.75;;;;;;;19.23;56.33;100721.51;127761;1105;22599;-85
2021/06/18 01:59:38;;;;;;;7.73;6.68;;;;;;;19.21;56.32;100720.89;127742;1105;23303;-84
2021/06/18 02:02:12;;;;;;;10.33;8.38;;;;;;;19.19;56.59;100719.45;127997;1101;22394;-86
2021/06/18 02:05:07;;;;;;;10.45;7.40;;;;;;;19.12;56.55;100714.14;128335;1098;22682;-83
2021/06/18 02:07:39;;;;;;;10.80;7.85;;;;;;;19.07;56.51;100716.66;128473;1098;22368;-86
2021/06/18 02:10:15;;;;;;;8.03;7.15;;;;;;;19.03;56.63;100710.91;128517;1097;22383;-84
2021/06/18 02:12:50;;;;;;;10.13;8.18;;;;;;;18.99;55.93;100715.06;128499;1098;24183;-84
2021/06/18 02:15:26;;;;;;;8.25;7.15;;;;;;;18.96;56.74;100709.28;128305;1098;22395;-85
2021/06/18 02:17:58;;;;;;;9.15;7.50;;;;;;;18.91;56.73;100717.16;128363;1098;24542;-84
2021/06/18 02:20:37;;;;;;;9.48;8.60;;;;;;;18.87;56.93;100714.09;128422;1098;22334;-84
2021/06/18 02:23:10;;;;;;;9.30;8.30;;;;;;;18.87;57.04;100715.95;128365;1098;24212;-84
2021/06/18 02:25:42;;;;;;;9.35;7.50;;;;;;;18.88;57.19;100717.58;128450;1098;23150;-86
2021/06/18 02:28:22;;;;;;;9.20;8.30;;;;;;;18.86;56.99;100712.45;128539;1098;24036;-84
2021/06/18 02:31:19;;;;;;;10.30;8.85;;;;;;;18.84;56.89;100724.40;128516;1098;22918;-83
2021/06/18 02:33:53;;;;;;;10.28;7.70;;;;;;;18.80;57.02;100715.98;128231;1098;23148;-84
2021/06/18 02:36:25;;;;;;;14.10;8.10;;;;;;;18.78;57.18;100718.84;128452;1098;22372;-84
2021/06/18 02:38:56;;;;;;;11.10;7.63;;;;;;;18.77;56.91;100721.75;128470;1098;22431;-84
2021/06/18 02:41:27;;;;;;;9.48;7.68;;;;;;;18.73;57.16;100729.39;128652;1098;22596;-84
2021/06/18 02:44:02;;;;;;;8.30;7.40;;;;;;;18.72;56.74;100724.23;128269;1101;22409;-84
2021/06/18 02:46:41;;;;;;;11.90;8.00;;;;;;;18.71;57.17;100718.03;128171;1101;22401;-85
2021/06/18 02:49:18;;;;;;;14.20;8.65;;;;;;;18.71;57.12;100723.38;128533;1101;24543;-84
2021/06/18 02:52:05;;;;;;;9.73;7.98;;;;;;;18.73;57.27;100731.25;128233;1098;23293;-82
2021/06/18 02:54:46;;;;;;;8.75;7.43;;;;;;;18.73;56.92;100732.06;128397;1098;24517;-85
2021/06/18 02:57:32;;;;;;;14.10;8.10;;;;;;;18.74;57.09;100739.05;128015;1101;22571;-84
2021/06/18 03:00:11;;;;;;;9.73;8.40;;;;;;;18.78;56.78;100739.45;128130;1101;22500;-81
2021/06/18 03:02:51;;;;;;;10.45;9.35;;;;;;;18.81;57.05;100747.05;127933;1101;22431;-82
2021/06/18 03:05:33;;;;;;;11.80;9.10;;;;;;;18.84;56.91;100735.11;127630;1104;22428;-85
2021/06/18 03:08:35;;;;;;;11.55;8.35;;;;;;;18.81;56.42;100737.16;127566;1105;23390;-84
2021/06/18 03:11:07;;;;;;;10.13;8.38;;;;;;;18.77;56.54;100743.16;127538;1105;22423;-84
2021/06/18 03:13:49;;;;;;;10.90;8.07;;;;;;;18.76;56.75;100741.50;127690;1105;22377;-86
2021/06/18 03:16:22;;;;;;;12.45;9.48;;;;;;;18.76;57.25;100753.05;128020;1101;22477;-86
2021/06/18 03:18:55;;;;;;;11.00;8.33;;;;;;;18.75;57.13;100754.06;127634;1105;22452;-86
2021/06/18 03:21:38;;;;;;;9.85;8.43;;;;;;;18.74;57.37;100748.94;127423;1105;22423;-87
2021/06/18 03:24:13;;;;;;;11.07;8.93;;;;;;;18.71;57.19;100754.68;127893;1104;22379;-85
2021/06/18 03:27:12;;;;;;;9.85;8.58;;;;;;;18.64;56.68;100746.67;127821;1101;22426;-85
2021/06/18 03:29:45;;;;;;;11.03;9.37;;;;;;;18.58;57.31;100756.36;128368;1101;25133;-85
2021/06/18 03:32:40;;;;;;;12.80;9.35;;;;;;;18.57;57.45;100754.72;127999;1104;22676;-85
2021/06/18 03:35:12;;;;;;;10.65;8.45;;;;;;;18.55;57.59;100751.42;128192;1101;22479;-84
2021/06/18 03:37:44;;;;;;;12.20;9.55;;;;;;;18.55;57.45;100755.95;128407;1101;24524;-84
2021/06/18 03:40:19;;;;;;;11.85;9.73;;;;;;;18.56;57.99;100757.63;128536;1098;22382;-84
2021/06/18 03:42:52;;;;;;;10.30;9.30;;;;;;;18.57;57.87;100754.72;128226;1101;22433;-83
2021/06/18 03:45:33;;;;;;;10.25;9.25;;;;;;;18.57;57.71;100754.72;128055;1101;22494;-85
2021/06/18 03:48:04;;;;;;;11.03;9.93;;;;;;;18.55;58.07;100751.42;127882;1101;22396;-84
2021/06/18 03:50:34;;;;;;;12.85;9.10;;;;;;;18.52;58.13;100741.14;127947;1101;22424;-83
2021/06/18 03:53:09;;;;;;;14.93;9.98;;;;;;;18.51;57.98;100741.36;127981;1101;22525;-83
2021/06/18 03:55:42;;;;;;;12.35;10.43;;;;;;;18.50;58.36;100737.05;128030;1101;22985;-86
2021/06/18 03:58:16;;;;;;;13.90;11.20;;;;;;;18.46;58.14;100739.33;128121;1098;22925;-84
2021/06/18 04:00:50;;;;;;;12.73;10.75;;;;;;;18.47;58.31;100746.31;128214;1098;22378;-85
2021/06/18 04:03:22;;;;;;;14.03;10.20;;;;;;;18.51;58.56;100746.72;128028;1100;22407;-85
2021/06/18 04:06:00;;;;;;;15.85;10.43;;;;;;;18.58;58.34;100756.36;128098;1102;22412;-84
2021/06/18 04:08:35;;;;;;;16.80;10.25;;;;;;;18.68;58.46;100766.62;127481;1102;22410;-84
2021/06/18 04:11:11;;;;;;;14.87;9.83;;;;;;;18.80;58.46;100764.16;127467;1104;22399;-85
2021/06/18 04:13:42;;;;;;;16.33;10.50;;;;;;;18.94;58.72;100760.38;127331;1108;22522;-85
2021/06/18 04:16:13;;;;;;;15.68;9.88;;;;;;;19.07;58.19;100764.86;127286;1108;23193;-85
2021/06/18 04:18:47;;;;;;;;;;;;;;;19.13;58.30;100764.01;127117;1105;22625;-84
2021/06/18 04:21:23;;;;;;;11.53;8.43;;;;;;;19.19;57.97;100763.16;127471;1105;22073;-84
2021/06/18 04:23:54;;;;;;;11.35;7.55;;;;;;;19.31;57.54;100757.11;127469;1104;22419;-83
2021/06/18 04:26:24;;;;;;;12.10;9.10;;;;;;;19.42;56.95;100759.09;127468;1105;22430;-84
2021/06/18 04:28:55;;;;;;;12.30;8.60;;;;;;;19.51;56.71;100755.11;127962;1105;22857;-85
2021/06/18 04:31:25;;;;;;;;;;;;;;;19.62;56.46;100753.59;127581;1101;22428;-87
2021/06/18 04:33:56;;;;;;;9.85;7.65;;;;;;;19.71;56.08;100753.14;128014;1101;22418;-83
2021/06/18 04:36:39;;;;;;;11.85;7.70;;;;;;;19.79;55.88;100752.03;128140;1098;22404;-84
2021/06/18 04:39:10;;;;;;;8.58;7.55;;;;;;;19.91;55.73;100760.20;128300;1098;22407;-84
2021/06/18 04:41:45;;;;;;;12.70;8.30;;;;;;;20.04;55.93;100751.23;128349;1098;22971;-84
2021/06/18 04:44:16;;;;;;;11.25;9.33;;;;;;;20.17;55.83;100751.10;128348;1098;22394;-85
2021/06/18 04:46:47;;;;;;;13.75;8.75;;;;;;;20.30;55.37;100752.84;128106;1101;23321;-85
2021/06/18 04:49:20;;;;;;;11.03;7.88;;;;;;;20.41;55.08;100754.78;128403;1101;24240;-85
2021/06/18 04:51:51;;;;;;;11.45;7.88;;;;;;;20.54;54.99;100762.72;128367;1098;24221;-85
2021/06/18 04:54:27;;;;;;;12.35;7.90;;;;;;;20.71;54.50;100762.94;128461;1098;22381;-84
2021/06/18 04:56:59;;;;;;;11.00;7.65;;;;;;;20.86;54.11;100749.14;128395;1098;22912;-84
2021/06/18 04:59:41;;;;;;;19.00;7.73;;;;;;;21.03;53.69;100754.70;128365;1098;23105;-86
2021/06/18 05:02:12;;;;;;;10.60;6.83;;;;;;;21.22;52.86;100760.84;128720;1097;22710;-85
2021/06/18 05:04:45;;;;;;;7.60;6.18;;;;;;;21.34;52.43;100745.58;128504;1098;24212;-85
2021/06/18 05:07:26;;;;;;;8.58;6.48;;;;;;;21.50;52.12;100749.52;128447;1097;22478;-87
2021/06/18 05:10:17;;;;;;;13.28;6.68;;;;;;;21.64;51.94;100744.75;128164;1101;22785;-87
2021/06/18 05:13:00;;;;;;;11.78;6.85;;;;;;;21.79;51.34;100751.33;128438;1101;22382;-86
2021/06/18 05:16:21;;;;;;;;;;;;;;;;;;;;;
2021/06/18 05:19:50;;;;;;;10.60;6.80;;;;;;;22.22;50.95;100754.74;128876;1098;22398;-88
2021/06/18 05:25:55;;;;;;;10.03;5.83;;;;;;;22.71;49.90;100752.57;128858;1095;22521;-90
2021/06/18 05:28:50;;;;;;;8.18;6.48;;;;;;;22.97;49.59;100746.66;128863;1095;22450;-87
2021/06/18 05:31:51;;;;;;;11.30;5.40;;;;;;;23.20;48.62;100755.72;128924;1095;22332;-86
2021/06/18 05:34:31;;;;;;;8.08;5.60;;;;;;;23.47;48.77;100751.34;128743;1095;22384;-84
2021/06/18 05:41:01;;;;;;;8.78;5.18;;;;;;;24.34;47.48;100759.99;128495;1098;22386;-85
2021/06/18 05:44:13;;;;;;;10.20;5.53;;;;;;;24.91;46.60;100748.84;128099;1101;22400;-85
2021/06/18 05:47:00;;;;;;;11.68;5.73;;;;;;;25.36;45.07;100747.73;128100;1101;22404;-85
2021/06/18 05:49:33;;;;;;;7.13;5.38;;;;;;;25.73;44.03;100753.18;128074;1101;22386;-86
2021/06/18 05:52:07;;;;;;;10.10;4.75;;;;;;;25.96;43.11;100762.86;128117;1101;24090;-85
2021/06/18 05:54:47;;;;;;;12.03;5.13;;;;;;;26.30;43.02;100767.94;128021;1101;22411;-85
2021/06/18 05:57:31;;;;;;;6.73;5.20;;;;;;;26.50;42.64;100759.95;128015;1101;22395;-84
2021/06/18 06:00:29;;;;;;;9.95;4.80;;;;;;;26.95;41.60;100753.05;128293;1098;22378;-85
2021/06/18 06:03:14;;;;;;;7.33;5.03;;;;;;;27.25;40.64;100759.66;128438;1098;22384;-84
2021/06/18 06:05:52;;;;;;;10.90;5.53;;;;;;;27.35;39.91;100750.72;128037;1101;22644;-84
2021/06/18 06:08:37;;;;;;;4.78;4.15;;;;;;;27.39;39.61;100754.52;127933;1101;22601;-82
2021/06/18 06:11:30;;;;;;;8.98;4.93;;;;;;;27.36;39.89;100741.52;127633;1105;22462;-79
2021/06/18 06:14:27;;;;;;;10.18;4.50;;;;;;;27.80;39.05;100741.00;127454;1105;22434;-85
2021/06/18 06:17:07;;;;;;;8.85;3.93;;;;;;;28.26;37.64;100739.00;127381;1105;24264;-82
2021/06/18 06:19:50;;;;;;;6.68;3.80;;;;;;;28.59;36.83;100747.59;127296;1105;22422;-82
2021/06/18 06:22:34;;;;;;;5.38;4.25;;;;;;;28.76;35.69;100753.52;127818;1101;24584;-81
2021/06/18 06:25:11;;;;;;;8.85;3.88;;;;;;;28.84;35.21;100752.10;128184;1101;25124;-82
2021/06/18 06:27:44;;;;;;;4.88;3.83;;;;;;;28.87;35.24;100748.83;127995;1101;23432;-82
2021/06/18 06:30:27;;;;;;;6.83;4.25;;;;;;;28.96;34.82;100749.88;128188;1098;22482;-83
2021/06/18 06:33:13;;;;;;;;;;;;;;;;;;;;;
2021/06/18 06:36:17;;;;;;;6.65;4.50;;;;;;;29.49;34.30;100743.80;128293;1098;23294;-81
2021/06/18 06:39:12;;;;;;;8.27;5.20;;;;;;;29.48;33.48;100742.19;128281;1098;25115;-81
2021/06/18 06:41:55;;;;;;;7.03;4.58;;;;;;;29.50;34.22;100748.98;128234;1098;23148;-81
2021/06/18 06:44:35;;;;;;;7.35;4.18;;;;;;;29.81;33.87;100750.65;128298;1098;25030;-80
2021/06/18 06:47:18;;;;;;;6.60;3.75;;;;;;;29.94;33.06;100742.61;128250;1098;22392;-81
2021/06/18 06:50:14;;;;;;;6.20;4.20;;;;;;;30.13;33.24;100739.97;128237;1098;22391;-82
2021/06/18 06:52:50;;;;;;;9.23;3.95;;;;;;;30.49;33.31;100739.59;128227;1098;22543;-80
2021/06/18 06:55:24;;;;;;;6.15;3.68;;;;;;;30.66;32.46;100736.38;128545;1098;22380;-81
2021/06/18 06:57:57;;;;;;;7.65;4.15;;;;;;;30.66;31.96;100742.64;128480;1095;22372;-81
2021/06/18 07:00:28;;;;;;;7.93;3.58;;;;;;;30.64;31.65;100749.48;128553;1095;22398;-81
2021/06/18 07:03:05;;;;;;;7.43;3.63;;;;;;;30.68;31.59;100745.87;128351;1098;22862;-82
2021/06/18 07:05:43;;;;;;;7.20;3.60;;;;;;;30.81;31.50;100740.84;128544;1098;23113;-82
2021/06/18 07:08:29;;;;;;;9.30;3.98;;;;;;;30.93;31.43;100733.84;128319;1098;22477;-81
2021/06/18 07:11:08;;;;;;;5.70;3.28;;;;;;;31.03;30.66;100738.34;128609;1098;24530;-82
2021/06/18 07:13:39;;;;;;;6.65;3.50;;;;;;;31.17;30.94;100730.22;128622;1098;22390;-82
2021/06/18 07:16:15;;;;;;;7.28;3.33;;;;;;;31.23;30.87;100733.69;128605;1095;22398;-82
2021/06/18 07:19:08;;;;;;;7.60;3.63;;;;;;;31.13;30.39;100737.38;128572;1096;22379;-82
2021/06/18 07:21:48;;;;;;;7.20;3.48;;;;;;;30.90;31.12;100726.25;128399;1098;22398;-83
2021/06/18 07:24:28;;;;;;;4.23;3.55;;;;;;;31.06;30.75;100728.77;127906;1101;24550;-83
2021/06/18 07:26:59;;;;;;;7.57;3.77;;;;;;;31.01;30.48;100726.09;127945;1101;22446;-83
2021/06/18 07:29:32;;;;;;;9.73;3.85;;;;;;;30.99;30.31;100728.30;127954;1102;24368;-82
2021/06/18 07:32:17;;;;;;;9.60;3.58;;;;;;;31.15;30.63;100737.88;127916;1104;22537;-82
2021/06/18 07:34:48;;;;;;;8.10;3.93;;;;;;;31.49;30.12;100725.91;127883;1103;22439;-84
2021/06/18 07:37:19;;;;;;;9.20;4.05;;;;;;;31.85;30.10;100723.36;127370;1104;22912;-83
2021/06/18 07:39:57;;;;;;;4.00;3.25;;;;;;;32.13;29.06;100720.70;127411;1105;22423;-83
2021/06/18 07:42:48;;;;;;;8.10;3.80;;;;;;;32.30;29.17;100716.23;127733;1101;22456;-84
2021/06/18 07:45:22;;;;;;;5.88;3.60;;;;;;;32.40;29.16;100723.41;128022;1101;24553;-84
2021/06/18 07:47:53;;;;;;;6.90;3.70;;;;;;;32.45;29.05;100717.85;128205;1101;22403;-84
2021/06/18 07:50:37;;;;;;;8.65;4.05;;;;;;;32.70;29.22;100718.44;128234;1098;22416;-86
2021/06/18 07:53:15;;;;;;;5.65;3.90;;;;;;;33.05;28.39;100711.35;128342;1098;22460;-85
2021/06/18 07:55:53;;;;;;;10.25;4.45;;;;;;;33.29;27.86;100705.59;128348;1098;22977;-84
2021/06/18 07:58:26;;;;;;;5.30;3.50;;;;;;;33.37;28.02;100709.50;128252;1098;22384;-84
2021/06/18 08:01:00;;;;;;;8.40;4.08;;;;;;;33.49;27.75;100713.32;128354;1101;22490;-84
2021/06/18 08:03:39;;;;;;;5.75;3.60;;;;;;;33.83;27.12;100711.08;128415;1098;22779;-83
2021/06/18 08:06:20;;;;;;;4.33;3.28;;;;;;;33.71;27.35;100712.45;128090;1098;22368;-84
2021/06/18 08:09:07;;;;;;;9.30;4.48;;;;;;;33.78;27.12;100702.98;128311;1098;24286;-85
2021/06/18 08:11:49;;;;;;;7.23;3.25;;;;;;;34.05;26.75;100701.99;128368;1098;22411;-85
2021/06/18 08:14:22;;;;;;;11.68;5.80;;;;;;;34.23;26.90;100700.13;127614;1101;22443;-83
2021/06/18 08:16:54;;;;;;;10.85;3.90;;;;;;;34.32;26.48;100700.94;128162;1098;22502;-85
2021/06/18 08:19:39;;;;;;;9.23;4.55;;;;;;;34.71;26.74;100696.52;128115;1101;22410;-85
2021/06/18 08:22:18;;;;;;;4.75;3.48;;;;;;;35.02;25.92;100696.38;128283;1101;22397;-85
2021/06/18 08:24:58;;;;;;;5.68;3.20;;;;;;;35.23;25.22;100700.08;128024;1101;22404;-85
2021/06/18 08:27:35;;;;;;;10.70;3.63;;;;;;;35.15;25.20;100700.88;128373;1100;24244;-83
2021/06/18 08:30:07;;;;;;;10.18;4.08;;;;;;;35.04;25.38;100694.13;128140;1101;23517;-83
2021/06/18 08:33:05;;;;;;;7.75;3.70;;;;;;;35.15;25.37;100691.84;128448;1095;22370;-85
2021/06/18 08:35:49;;;;;;;6.10;5.50;;;;;;;35.15;25.55;100680.86;128478;1098;22401;-86
2021/06/18 08:38:25;;;;;;;3.00;2.70;;;;;;;35.20;24.87;100689.74;128619;1095;22692;-86
2021/06/18 08:41:02;;;;;;;6.25;3.50;;;;;;;35.06;24.57;100689.93;128370;1096;23363;-85
2021/06/18 08:43:50;;;;;;;5.00;3.48;;;;;;;34.84;24.37;100682.63;128664;1095;22373;-84
2021/06/18 08:46:21;;;;;;;7.90;3.43;;;;;;;34.80;24.58;100683.61;128676;1098;22478;-84
2021/06/18 08:48:55;;;;;;;6.78;3.60;;;;;;;34.89;24.99;100670.70;128430;1098;25047;-84
2021/06/18 08:51:27;;;;;;;3.60;2.88;;;;;;;34.89;24.62;100676.20;128531;1095;22385;-84
2021/06/18 08:53:58;;;;;;;11.40;3.43;;;;;;;34.72;24.27;100678.91;128674;1098;22393;-84
2021/06/18 08:56:27;;;;;;;;;;;;;;;34.69;24.87;100674.07;128668;1098;22438;-85
2021/06/18 08:58:58;;;;;;;6.30;3.13;;;;;;;34.95;25.20;100666.64;128415;1098;23090;-85
2021/06/18 09:01:27;;;;;;;;;;;;;;;35.30;25.23;100666.63;128416;1098;25748;-85
2021/06/18 09:04:07;;;;;;;;;;;;;;;35.61;24.22;100660.09;128377;1096;21324;-84
2021/06/18 09:06:40;;;;;;;6.77;3.03;;;;;;;35.65;24.21;100672.03;128399;1098;23050;-85
2021/06/18 09:09:22;;;;;;;5.50;4.08;;;;;;;35.32;24.16;100672.58;128337;1098;22393;-86
2021/06/18 09:12:05;;;;;;;8.75;4.10;;;;;;;35.12;24.34;100672.16;128396;1098;23344;-84
2021/06/18 09:14:41;;;;;;;4.80;3.40;;;;;;;35.24;24.16;100671.48;128332;1098;22407;-82
2021/06/18 09:17:23;;;;;;;4.45;3.53;;;;;;;35.42;24.44;100661.25;128304;1098;24221;-84
2021/06/18 09:20:00;;;;;;;5.77;3.53;;;;;;;35.51;24.19;100655.73;128362;1098;23084;-85
2021/06/18 09:22:43;;;;;;;4.78;3.43;;;;;;;35.77;23.73;100666.66;128172;1098;22395;-85
2021/06/18 09:25:17;;;;;;;10.10;4.13;;;;;;;35.64;23.47;100664.94;127995;1101;22397;-84
2021/06/18 09:28:04;;;;;;;7.25;4.03;;;;;;;35.45;23.65;100668.83;128069;1101;22399;-83
2021/06/18 09:31:05;;;;;;;4.68;3.08;;;;;;;35.42;23.52;100661.25;127487;1104;22427;-85
2021/06/18 09:33:43;;;;;;;8.88;3.43;;;;;;;35.44;23.33;100660.93;127883;1104;22407;-85
2021/06/18 09:36:13;;;;;;;4.60;2.88;;;;;;;35.27;23.11;100664.53;127923;1105;22444;-85
2021/06/18 09:38:55;;;;;;;6.48;3.75;;;;;;;35.18;22.93;100658.25;127377;1105;22752;-84
2021/06/18 09:41:37;;;;;;;11.13;3.93;;;;;;;35.39;23.11;100661.09;127421;1104;22439;-85
2021/06/18 09:44:29;;;;;;;6.60;3.70;;;;;;;35.31;22.75;100654.50;128030;1101;22950;-85
2021/06/18 09:47:05;;;;;;;5.83;3.10;;;;;;;35.40;23.11;100659.98;128076;1098;24535;-83
2021/06/18 09:49:38;;;;;;;5.70;3.38;;;;;;;35.36;23.07;100655.14;128444;1098;22401;-84
2021/06/18 09:52:16;;;;;;;6.18;3.80;;;;;;;35.34;23.35;100651.10;128050;1098;22607;-83
2021/06/18 09:54:53;;;;;;;5.15;3.65;;;;;;;35.24;23.39;100640.47;127946;1099;22419;-85
2021/06/18 09:57:40;;;;;;;6.98;3.58;;;;;;;35.33;23.39;100638.52;128343;1098;24521;-84
2021/06/18 10:00:17;;;;;;;5.18;3.68;;;;;;;35.23;22.98;100644.36;128348;1098;22467;-84
2021/06/18 10:02:52;;;;;;;3.98;3.50;;;;;;;35.18;23.29;100637.08;128376;1098;22426;-85
2021/06/18 10:05:31;;;;;;;4.60;3.35;;;;;;;35.32;23.36;100642.38;128324;1098;24195;-84
2021/06/18 10:08:05;;;;;;;6.30;4.03;;;;;;;35.40;23.53;100635.27;128069;1101;22605;-84
2021/06/18 10:10:38;;;;;;;4.30;3.30;;;;;;;35.32;23.30;100639.63;128191;1101;23150;-86
2021/06/18 10:13:09;;;;;;;5.98;3.68;;;;;;;35.05;23.85;100629.84;128194;1098;22899;-84
2021/06/18 10:15:39;;;;;;;4.18;3.35;;;;;;;34.79;23.89;100627.09;128248;1098;22404;-83
2021/06/18 10:18:12;;;;;;;6.35;3.68;;;;;;;34.66;23.90;100631.64;128037;1101;24560;-83
2021/06/18 10:20:43;;;;;;;5.43;3.50;;;;;;;34.64;23.60;100631.95;128020;1101;22393;-84
2021/06/18 10:23:16;;;;;;;;;;;;;;;34.36;24.12;100630.63;128061;1102;22616;-84
2021/06/18 10:25:56;;;;;;;5.03;3.05;;;;;;;34.17;24.40;100620.76;127951;1101;21279;-84
2021/06/18 10:28:32;;;;;;;4.53;4.13;;;;;;;34.08;24.10;100622.67;127942;1101;24536;-84
2021/06/18 10:31:05;;;;;;;7.00;4.03;;;;;;;34.04;24.49;100618.95;127913;1101;22517;-85
2021/06/18 10:33:40;;;;;;;4.45;3.30;;;;;;;33.99;24.34;100621.83;127726;1101;22426;-84
2021/06/18 10:36:29;;;;;;;6.33;3.78;;;;;;;33.70;24.24;100623.19;127936;1101;24527;-84
2021/06/18 10:39:15;;;;;;;10.25;3.85;;;;;;;33.60;24.13;100617.19;127965;1101;22747;-84
2021/06/18 10:41:58;;;;;;;6.18;3.80;;;;;;;33.40;24.05;100610.30;127872;1105;24243;-83
2021/06/18 10:44:50;;;;;;;5.88;3.75;;;;;;;33.25;24.71;100615.03;127824;1105;22433;-84
2021/06/18 10:47:30;;;;;;;4.53;3.85;;;;;;;33.22;24.73;100615.69;127899;1104;22409;-84
2021/06/18 10:50:02;;;;;;;5.78;3.33;;;;;;;33.10;24.32;100614.64;127944;1101;22416;-85
2021/06/18 10:52:42;;;;;;;7.30;3.60;;;;;;;33.03;24.42;100607.67;127981;1101;22236;-84
2021/06/18 10:55:14;;;;;;;5.00;3.60;;;;;;;32.99;25.03;100603.13;128154;1098;22473;-84
2021/06/18 10:57:53;;;;;;;5.78;3.83;;;;;;;33.01;25.01;100601.70;128080;1101;22490;-85
2021/06/18 11:00:27;;;;;;;7.00;3.83;;;;;;;33.02;25.12;100594.29;128162;1098;22456;-85
2021/06/18 11:02:59;;;;;;;6.23;3.80;;;;;;;32.81;24.60;100597.52;128238;1098;22364;-85
2021/06/18 11:05:37;;;;;;;6.58;3.73;;;;;;;32.60;24.99;100607.34;128337;1098;22406;-84
2021/06/18 11:08:26;;;;;;;4.18;3.53;;;;;;;32.41;24.94;100603.92;128377;1098;22374;-85
2021/06/18 11:11:28;;;;;;;11.85;3.63;;;;;;;32.19;25.47;100600.03;128311;1098;22388;-83
2021/06/18 11:14:04;;;;;;;4.48;3.68;;;;;;;32.23;25.76;100601.03;128310;1098;23954;-83
2021/06/18 11:16:41;;;;;;;6.98;3.40;;;;;;;32.29;25.48;100597.08;128498;1098;22410;-85
2021/06/18 11:19:31;;;;;;;6.38;4.10;;;;;;;32.34;25.64;100588.74;128618;1095;22369;-86
2021/06/18 11:22:48;;;;;;;4.43;3.78;;;;;;;32.43;25.82;100586.13;128663;1098;22386;-83
2021/06/18 11:26:00;;;;;;;6.93;3.90;;;;;;;32.43;25.86;100586.13;128655;1095;22388;-84
2021/06/18 11:28:36;;;;;;;8.43;3.40;;;;;;;32.42;25.82;100578.19;127921;1101;22488;-83
2021/06/18 11:31:22;;;;;;;6.23;4.03;;;;;;;32.38;26.18;100574.45;127867;1105;24534;-84
2021/06/18 11:33:58;;;;;;;6.30;3.98;;;;;;;32.42;25.95;100576.28;128045;1105;22433;-85
2021/06/18 11:36:43;;;;;;;7.70;4.00;;;;;;;32.49;25.97;100571.22;128018;1105;22476;-84
2021/06/18 11:39:17;;;;;;;7.68;4.90;;;;;;;32.54;25.95;100575.75;127265;1105;22479;-85
2021/06/18 11:41:58;;;;;;;7.87;4.50;;;;;;;32.61;26.30;100576.13;127264;1105;22511;-84
2021/06/18 11:44:29;;;;;;;5.83;3.90;;;;;;;32.61;25.87;100569.85;127217;1105;24906;-84
2021/06/18 11:46:59;;;;;;;;;;;;;;;32.38;25.63;100574.45;127526;1104;22421;-84
2021/06/18 11:49:33;;;;;;;8.90;3.65;;;;;;;32.28;25.90;100572.77;127366;1105;21280;-85
2021/06/18 11:52:07;;;;;;;6.50;3.83;;;;;;;32.03;25.67;100572.22;127421;1105;22370;-84
2021/06/18 11:54:41;;;;;;;5.23;4.13;;;;;;;31.77;25.96;100560.98;127488;1105;22473;-85
2021/06/18 11:57:19;;;;;;;10.55;4.20;;;;;;;31.68;25.60;100562.00;127331;1104;23314;-84
2021/06/18 11:59:59;;;;;;;3.70;3.33;;;;;;;31.65;26.07;100561.48;127620;1105;22324;-85
2021/06/18 12:02:35;;;;;;;9.43;4.08;;;;;;;31.70;25.82;100568.78;127961;1104;22441;-83
2021/06/18 12:05:17;;;;;;;6.35;4.18;;;;;;;31.69;25.71;100569.07;127943;1104;24553;-84
2021/06/18 12:07:48;;;;;;;;;;;;;;;31.55;26.00;100560.88;127932;1101;22651;-84
2021/06/18 12:10:30;;;;;;;6.63;4.70;;;;;;;31.50;26.29;100563.73;127368;1104;21286;-83
2021/06/18 12:13:01;;;;;;;9.00;4.45;;;;;;;31.51;26.36;100559.88;127423;1105;22453;-81
2021/06/18 12:15:32;;;;;;;;;;;;;;;31.53;26.02;100549.47;127255;1104;22435;-80
2021/06/18 12:18:06;;;;;;;7.33;4.10;;;;;;;31.54;26.52;100553.81;127535;1101;21279;-82
2021/06/18 12:20:43;;;;;;;5.10;4.48;;;;;;;31.55;26.44;100547.23;127322;1105;25176;-80